sensor_id;sensor_type;location;lat;lon;timestamp;P1;durP1;ratioP1;P2;durP2;ratioP2
55350;SDS011;62194;49.480;10.986;2024-02-14T00:00:00;14.83;;;9.90;;
55350;SDS011;62194;49.480;10.986;2024-02-14T00:00:07;13.73;;;9.60;;
55350;SDS011;62194;49.480;10.986;2024-02-14T00:00:18;13.18;;;9.82;;
55350;SDS011;62194;49.480;10.986;2024-02-14T00:00:25;13.20;;;10.10;;
55350;SDS011;62194;49.480;10.986;2024-02-14T00:00:30;13.40;;;10.33;;
55350;SDS011;62194;49.480;10.986;2024-02-14T00:00:36;14.13;;;10.33;;
55350;SDS011;62194;49.480;10.986;2024-02-14T00:00:41;13.85;;;10.15;;
55350;SDS011;62194;49.480;10.986;2024-02-14T00:00:48;13.83;;;9.80;;
55350;SDS011;62194;49.480;10.986;2024-02-14T00:00:54;13.57;;;9.60;;
55350;SDS011;62194;49.480;10.986;2024-02-14T00:00:59;12.82;;;9.40;;
55350;SDS011;62194;49.480;10.986;2024-02-14T00:01:05;11.82;;;9.40;;
55350;SDS011;62194;49.480;10.986;2024-02-14T00:01:12;12.13;;;9.40;;
55350;SDS011;62194;49.480;10.986;2024-02-14T00:01:18;12.65;;;9.57;;
55350;SDS011;62194;49.480;10.986;2024-02-14T00:01:23;13.40;;;9.60;;
55350;SDS011;62194;49.480;10.986;2024-02-14T00:01:28;13.50;;;9.50;;
55350;SDS011;62194;49.480;10.986;2024-02-14T00:01:34;13.82;;;9.35;;
55350;SDS011;62194;49.480;10.986;2024-02-14T00:01:41;14.34;;;9.30;;
55350;SDS011;62194;49.480;10.986;2024-02-14T00:01:48;13.98;;;9.46;;
55350;SDS011;62194;49.480;10.986;2024-02-14T00:01:53;13.40;;;9.47;;
55350;SDS011;62194;49.480;10.986;2024-02-14T00:01:58;13.23;;;9.57;;
55350;SDS011;62194;49.480;10.986;2024-02-14T00:02:04;13.60;;;9.60;;
55350;SDS011;62194;49.480;10.986;2024-02-14T00:02:10;13.73;;;9.70;;
55350;SDS011;62194;49.480;10.986;2024-02-14T00:02:17;13.00;;;9.52;;
55350;SDS011;62194;49.480;10.986;2024-02-14T00:02:22;12.47;;;9.33;;
55350;SDS011;62194;49.480;10.986;2024-02-14T00:02:27;12.93;;;9.48;;
55350;SDS011;62194;49.480;10.986;2024-02-14T00:02:33;12.87;;;9.70;;
55350;SDS011;62194;49.480;10.986;2024-02-14T00:02:38;12.30;;;9.73;;
55350;SDS011;62194;49.480;10.986;2024-02-14T00:02:44;12.57;;;9.68;;
55350;SDS011;62194;49.480;10.986;2024-02-14T00:02:54;12.63;;;9.68;;
55350;SDS011;62194;49.480;10.986;2024-02-14T00:02:59;12.03;;;9.40;;
55350;SDS011;62194;49.480;10.986;2024-02-14T00:03:04;12.27;;;9.40;;
55350;SDS011;62194;49.480;10.986;2024-02-14T00:03:11;12.03;;;9.27;;
55350;SDS011;62194;49.480;10.986;2024-02-14T00:03:16;12.10;;;9.23;;
55350;SDS011;62194;49.480;10.986;2024-02-14T00:03:21;12.77;;;9.33;;
55350;SDS011;62194;49.480;10.986;2024-02-14T00:03:28;13.18;;;9.64;;
55350;SDS011;62194;49.480;10.986;2024-02-14T00:03:33;13.30;;;9.70;;
55350;SDS011;62194;49.480;10.986;2024-02-14T00:03:38;13.55;;;9.82;;
55350;SDS011;62194;49.480;10.986;2024-02-14T00:03:44;14.23;;;10.30;;
55350;SDS011;62194;49.480;10.986;2024-02-14T00:03:49;14.27;;;10.40;;
55350;SDS011;62194;49.480;10.986;2024-02-14T00:03:54;14.02;;;10.20;;
55350;SDS011;62194;49.480;10.986;2024-02-14T00:04:00;13.50;;;10.00;;
55350;SDS011;62194;49.480;10.986;2024-02-14T00:04:05;13.30;;;10.07;;
55350;SDS011;62194;49.480;10.986;2024-02-14T00:04:12;12.87;;;9.70;;
55350;SDS011;62194;49.480;10.986;2024-02-14T00:04:19;12.33;;;9.50;;
55350;SDS011;62194;49.480;10.986;2024-02-14T00:04:25;12.83;;;9.57;;
55350;SDS011;62194;49.480;10.986;2024-02-14T00:04:30;12.83;;;9.57;;
55350;SDS011;62194;49.480;10.986;2024-02-14T00:04:35;12.90;;;9.48;;
55350;SDS011;62194;49.480;10.986;2024-02-14T00:04:41;13.77;;;9.60;;
55350;SDS011;62194;49.480;10.986;2024-02-14T00:04:46;13.37;;;9.53;;
55350;SDS011;62194;49.480;10.986;2024-02-14T00:04:52;13.52;;;9.50;;
55350;SDS011;62194;49.480;10.986;2024-02-14T00:04:58;13.50;;;9.50;;
55350;SDS011;62194;49.480;10.986;2024-02-14T00:05:04;13.60;;;9.57;;
55350;SDS011;62194;49.480;10.986;2024-02-14T00:05:10;13.48;;;9.45;;
55350;SDS011;62194;49.480;10.986;2024-02-14T00:05:16;14.10;;;9.77;;
55350;SDS011;62194;49.480;10.986;2024-02-14T00:05:21;14.25;;;10.20;;
55350;SDS011;62194;49.480;10.986;2024-02-14T00:05:28;14.38;;;10.20;;
55350;SDS011;62194;49.480;10.986;2024-02-14T00:05:33;13.90;;;10.10;;
55350;SDS011;62194;49.480;10.986;2024-02-14T00:05:39;13.35;;;10.02;;
55350;SDS011;62194;49.480;10.986;2024-02-14T00:05:45;12.45;;;9.70;;
55350;SDS011;62194;49.480;10.986;2024-02-14T00:05:51;12.37;;;9.43;;
55350;SDS011;62194;49.480;10.986;2024-02-14T00:05:57;11.73;;;9.30;;
55350;SDS011;62194;49.480;10.986;2024-02-14T00:06:03;11.93;;;9.38;;
55350;SDS011;62194;49.480;10.986;2024-02-14T00:06:09;11.68;;;9.24;;
55350;SDS011;62194;49.480;10.986;2024-02-14T00:06:16;11.70;;;9.12;;
55350;SDS011;62194;49.480;10.986;2024-02-14T00:06:22;11.32;;;9.05;;
55350;SDS011;62194;49.480;10.986;2024-02-14T00:06:28;11.45;;;9.07;;
55350;SDS011;62194;49.480;10.986;2024-02-14T00:06:37;11.77;;;9.07;;
55350;SDS011;62194;49.480;10.986;2024-02-14T00:06:42;11.55;;;9.23;;
55350;SDS011;62194;49.480;10.986;2024-02-14T00:06:48;11.75;;;9.40;;
55350;SDS011;62194;49.480;10.986;2024-02-14T00:06:53;11.77;;;9.47;;
55350;SDS011;62194;49.480;10.986;2024-02-14T00:06:59;11.97;;;9.60;;
55350;SDS011;62194;49.480;10.986;2024-02-14T00:07:04;11.60;;;9.65;;
55350;SDS011;62194;49.480;10.986;2024-02-14T00:07:09;11.77;;;9.70;;
55350;SDS011;62194;49.480;10.986;2024-02-14T00:07:15;12.07;;;9.57;;
55350;SDS011;62194;49.480;10.986;2024-02-14T00:07:20;12.85;;;9.45;;
55350;SDS011;62194;49.480;10.986;2024-02-14T00:07:26;12.40;;;9.20;;
55350;SDS011;62194;49.480;10.986;2024-02-14T00:07:31;12.53;;;9.07;;
55350;SDS011;62194;49.480;10.986;2024-02-14T00:07:37;12.45;;;9.10;;
55350;SDS011;62194;49.480;10.986;2024-02-14T00:07:44;12.10;;;9.07;;
55350;SDS011;62194;49.480;10.986;2024-02-14T00:07:49;11.97;;;9.20;;
55350;SDS011;62194;49.480;10.986;2024-02-14T00:07:55;12.60;;;9.32;;
55350;SDS011;62194;49.480;10.986;2024-02-14T00:08:00;13.40;;;9.43;;
55350;SDS011;62194;49.480;10.986;2024-02-14T00:08:06;13.27;;;9.40;;
55350;SDS011;62194;49.480;10.986;2024-02-14T00:08:12;13.43;;;9.43;;
55350;SDS011;62194;49.480;10.986;2024-02-14T00:08:19;13.16;;;9.46;;
55350;SDS011;62194;49.480;10.986;2024-02-14T00:08:25;13.37;;;9.50;;
55350;SDS011;62194;49.480;10.986;2024-02-14T00:08:31;12.98;;;9.50;;
55350;SDS011;62194;49.480;10.986;2024-02-14T00:08:36;12.70;;;9.40;;
55350;SDS011;62194;49.480;10.986;2024-02-14T00:08:42;13.40;;;9.50;;
55350;SDS011;62194;49.480;10.986;2024-02-14T00:08:48;13.63;;;9.60;;
55350;SDS011;62194;49.480;10.986;2024-02-14T00:08:53;13.70;;;9.57;;
55350;SDS011;62194;49.480;10.986;2024-02-14T00:08:58;13.03;;;9.57;;
55350;SDS011;62194;49.480;10.986;2024-02-14T00:09:03;13.60;;;9.82;;
55350;SDS011;62194;49.480;10.986;2024-02-14T00:09:09;13.50;;;9.73;;
55350;SDS011;62194;49.480;10.986;2024-02-14T00:09:14;12.60;;;9.57;;
55350;SDS011;62194;49.480;10.986;2024-02-14T00:09:20;12.40;;;9.48;;
55350;SDS011;62194;49.480;10.986;2024-02-14T00:09:25;11.60;;;9.20;;
55350;SDS011;62194;49.480;10.986;2024-02-14T00:09:31;11.38;;;9.02;;
55350;SDS011;62194;49.480;10.986;2024-02-14T00:09:36;11.63;;;9.20;;
55350;SDS011;62194;49.480;10.986;2024-02-14T00:09:41;11.73;;;9.32;;
55350;SDS011;62194;49.480;10.986;2024-02-14T00:09:47;13.03;;;9.50;;
55350;SDS011;62194;49.480;10.986;2024-02-14T00:09:53;13.65;;;9.68;;
55350;SDS011;62194;49.480;10.986;2024-02-14T00:09:59;14.40;;;10.00;;
55350;SDS011;62194;49.480;10.986;2024-02-14T00:10:04;14.87;;;9.93;;
55350;SDS011;62194;49.480;10.986;2024-02-14T00:10:11;14.72;;;9.76;;
55350;SDS011;62194;49.480;10.986;2024-02-14T00:10:16;15.10;;;9.70;;
55350;SDS011;62194;49.480;10.986;2024-02-14T00:10:22;14.50;;;9.57;;
55350;SDS011;62194;49.480;10.986;2024-02-14T00:10:28;14.40;;;9.30;;
55350;SDS011;62194;49.480;10.986;2024-02-14T00:10:33;13.50;;;9.15;;
55350;SDS011;62194;49.480;10.986;2024-02-14T00:10:39;13.03;;;9.10;;
55350;SDS011;62194;49.480;10.986;2024-02-14T00:10:44;11.25;;;9.02;;
55350;SDS011;62194;49.480;10.986;2024-02-14T00:10:49;11.33;;;8.97;;
55350;SDS011;62194;49.480;10.986;2024-02-14T00:10:55;12.67;;;9.07;;
55350;SDS011;62194;49.480;10.986;2024-02-14T00:11:00;12.63;;;9.10;;
55350;SDS011;62194;49.480;10.986;2024-02-14T00:11:06;13.37;;;9.13;;
55350;SDS011;62194;49.480;10.986;2024-02-14T00:11:11;13.45;;;8.95;;
55350;SDS011;62194;49.480;10.986;2024-02-14T00:11:17;14.20;;;8.83;;
55350;SDS011;62194;49.480;10.986;2024-02-14T00:11:22;12.70;;;8.60;;
55350;SDS011;62194;49.480;10.986;2024-02-14T00:11:28;12.80;;;8.50;;
55350;SDS011;62194;49.480;10.986;2024-02-14T00:11:33;13.25;;;8.68;;
55350;SDS011;62194;49.480;10.986;2024-02-14T00:11:38;13.93;;;8.90;;
55350;SDS011;62194;49.480;10.986;2024-02-14T00:11:44;13.30;;;8.93;;
55350;SDS011;62194;49.480;10.986;2024-02-14T00:11:49;13.75;;;9.07;;
55350;SDS011;62194;49.480;10.986;2024-02-14T00:11:54;13.40;;;9.10;;
55350;SDS011;62194;49.480;10.986;2024-02-14T00:11:59;13.13;;;8.93;;
55350;SDS011;62194;49.480;10.986;2024-02-14T00:12:05;12.83;;;8.77;;
55350;SDS011;62194;49.480;10.986;2024-02-14T00:12:10;12.48;;;8.68;;
55350;SDS011;62194;49.480;10.986;2024-02-14T00:12:16;12.75;;;8.68;;
55350;SDS011;62194;49.480;10.986;2024-02-14T00:12:21;12.80;;;8.93;;
55350;SDS011;62194;49.480;10.986;2024-02-14T00:12:29;13.08;;;9.20;;
55350;SDS011;62194;49.480;10.986;2024-02-14T00:12:35;14.17;;;9.27;;
55350;SDS011;62194;49.480;10.986;2024-02-14T00:12:40;13.90;;;9.30;;
55350;SDS011;62194;49.480;10.986;2024-02-14T00:12:46;13.38;;;9.38;;
55350;SDS011;62194;49.480;10.986;2024-02-14T00:12:53;13.35;;;9.20;;
55350;SDS011;62194;49.480;10.986;2024-02-14T00:12:58;13.15;;;9.27;;
55350;SDS011;62194;49.480;10.986;2024-02-14T00:13:03;12.87;;;9.43;;
55350;SDS011;62194;49.480;10.986;2024-02-14T00:13:09;14.20;;;9.63;;
55350;SDS011;62194;49.480;10.986;2024-02-14T00:13:14;14.47;;;9.43;;
55350;SDS011;62194;49.480;10.986;2024-02-14T00:13:23;14.53;;;9.50;;
55350;SDS011;62194;49.480;10.986;2024-02-14T00:13:28;14.80;;;9.40;;
55350;SDS011;62194;49.480;10.986;2024-02-14T00:13:33;14.73;;;9.37;;
55350;SDS011;62194;49.480;10.986;2024-02-14T00:13:39;13.50;;;9.00;;
55350;SDS011;62194;49.480;10.986;2024-02-14T00:13:44;13.90;;;9.47;;
55350;SDS011;62194;49.480;10.986;2024-02-14T00:13:50;14.40;;;9.55;;
55350;SDS011;62194;49.480;10.986;2024-02-14T00:13:55;14.53;;;9.60;;
55350;SDS011;62194;49.480;10.986;2024-02-14T00:14:01;14.43;;;9.65;;
55350;SDS011;62194;49.480;10.986;2024-02-14T00:14:06;14.03;;;9.60;;
55350;SDS011;62194;49.480;10.986;2024-02-14T00:14:12;13.63;;;9.20;;
55350;SDS011;62194;49.480;10.986;2024-02-14T00:14:17;13.60;;;9.07;;
55350;SDS011;62194;49.480;10.986;2024-02-14T00:14:25;12.83;;;9.10;;
55350;SDS011;62194;49.480;10.986;2024-02-14T00:14:30;12.03;;;9.00;;
55350;SDS011;62194;49.480;10.986;2024-02-14T00:14:35;12.30;;;9.13;;
55350;SDS011;62194;49.480;10.986;2024-02-14T00:14:41;12.88;;;9.60;;
55350;SDS011;62194;49.480;10.986;2024-02-14T00:14:46;12.43;;;9.70;;
55350;SDS011;62194;49.480;10.986;2024-02-14T00:14:52;12.95;;;9.70;;
55350;SDS011;62194;49.480;10.986;2024-02-14T00:14:57;13.40;;;9.90;;
55350;SDS011;62194;49.480;10.986;2024-02-14T00:15:03;13.05;;;9.98;;
55350;SDS011;62194;49.480;10.986;2024-02-14T00:15:10;11.40;;;9.47;;
55350;SDS011;62194;49.480;10.986;2024-02-14T00:15:16;11.63;;;9.53;;
55350;SDS011;62194;49.480;10.986;2024-02-14T00:15:21;12.07;;;9.43;;
55350;SDS011;62194;49.480;10.986;2024-02-14T00:15:26;12.20;;;9.18;;
55350;SDS011;62194;49.480;10.986;2024-02-14T00:15:32;12.90;;;9.10;;
55350;SDS011;62194;49.480;10.986;2024-02-14T00:15:38;12.90;;;9.20;;
55350;SDS011;62194;49.480;10.986;2024-02-14T00:15:43;13.93;;;9.32;;
55350;SDS011;62194;49.480;10.986;2024-02-14T00:15:50;12.63;;;9.30;;
55350;SDS011;62194;49.480;10.986;2024-02-14T00:15:56;12.67;;;9.33;;
55350;SDS011;62194;49.480;10.986;2024-02-14T00:16:01;12.70;;;9.48;;
55350;SDS011;62194;49.480;10.986;2024-02-14T00:16:07;12.53;;;9.47;;
55350;SDS011;62194;49.480;10.986;2024-02-14T00:16:13;12.60;;;9.70;;
55350;SDS011;62194;49.480;10.986;2024-02-14T00:16:18;12.10;;;9.55;;
55350;SDS011;62194;49.480;10.986;2024-02-14T00:16:23;12.67;;;9.67;;
55350;SDS011;62194;49.480;10.986;2024-02-14T00:16:29;12.73;;;9.77;;
55350;SDS011;62194;49.480;10.986;2024-02-14T00:16:35;13.68;;;9.80;;
55350;SDS011;62194;49.480;10.986;2024-02-14T00:16:41;14.25;;;9.88;;
55350;SDS011;62194;49.480;10.986;2024-02-14T00:16:46;15.48;;;10.05;;
55350;SDS011;62194;49.480;10.986;2024-02-14T00:16:52;15.37;;;10.03;;
55350;SDS011;62194;49.480;10.986;2024-02-14T00:16:57;14.67;;;9.87;;
55350;SDS011;62194;49.480;10.986;2024-02-14T00:17:04;13.74;;;9.76;;
55350;SDS011;62194;49.480;10.986;2024-02-14T00:17:10;12.40;;;9.37;;
55350;SDS011;62194;49.480;10.986;2024-02-14T00:17:16;11.23;;;9.17;;
55350;SDS011;62194;49.480;10.986;2024-02-14T00:17:21;11.32;;;9.18;;
55350;SDS011;62194;49.480;10.986;2024-02-14T00:17:26;11.63;;;9.20;;
55350;SDS011;62194;49.480;10.986;2024-02-14T00:17:32;11.63;;;9.23;;
55350;SDS011;62194;49.480;10.986;2024-02-14T00:17:41;12.53;;;9.43;;
55350;SDS011;62194;49.480;10.986;2024-02-14T00:17:46;12.27;;;9.35;;
55350;SDS011;62194;49.480;10.986;2024-02-14T00:17:51;11.67;;;9.10;;
55350;SDS011;62194;49.480;10.986;2024-02-14T00:17:56;11.70;;;9.20;;
55350;SDS011;62194;49.480;10.986;2024-02-14T00:18:02;11.85;;;9.35;;
55350;SDS011;62194;49.480;10.986;2024-02-14T00:18:07;11.80;;;9.40;;
55350;SDS011;62194;49.480;10.986;2024-02-14T00:18:13;11.93;;;9.60;;
55350;SDS011;62194;49.480;10.986;2024-02-14T00:18:20;12.50;;;9.87;;
55350;SDS011;62194;49.480;10.986;2024-02-14T00:18:27;13.04;;;9.70;;
55350;SDS011;62194;49.480;10.986;2024-02-14T00:18:34;13.00;;;9.40;;
55350;SDS011;62194;49.480;10.986;2024-02-14T00:18:39;12.90;;;9.30;;
55350;SDS011;62194;49.480;10.986;2024-02-14T00:18:45;13.15;;;9.38;;
55350;SDS011;62194;49.480;10.986;2024-02-14T00:18:50;13.27;;;9.23;;
55350;SDS011;62194;49.480;10.986;2024-02-14T00:18:56;12.83;;;9.33;;
55350;SDS011;62194;49.480;10.986;2024-02-14T00:19:02;12.58;;;9.38;;
55350;SDS011;62194;49.480;10.986;2024-02-14T00:19:07;13.10;;;9.57;;
55350;SDS011;62194;49.480;10.986;2024-02-14T00:19:12;12.60;;;9.33;;
55350;SDS011;62194;49.480;10.986;2024-02-14T00:19:18;12.38;;;9.30;;
55350;SDS011;62194;49.480;10.986;2024-02-14T00:19:24;12.35;;;9.35;;
55350;SDS011;62194;49.480;10.986;2024-02-14T00:19:29;12.17;;;9.30;;
55350;SDS011;62194;49.480;10.986;2024-02-14T00:19:34;12.37;;;9.20;;
55350;SDS011;62194;49.480;10.986;2024-02-14T00:19:39;12.43;;;9.20;;
55350;SDS011;62194;49.480;10.986;2024-02-14T00:19:45;12.80;;;9.27;;
55350;SDS011;62194;49.480;10.986;2024-02-14T00:19:50;13.50;;;9.30;;
55350;SDS011;62194;49.480;10.986;2024-02-14T00:19:55;13.67;;;9.37;;
55350;SDS011;62194;49.480;10.986;2024-02-14T00:20:01;14.68;;;9.50;;
55350;SDS011;62194;49.480;10.986;2024-02-14T00:20:08;14.68;;;9.72;;
55350;SDS011;62194;49.480;10.986;2024-02-14T00:20:15;14.47;;;10.03;;
55350;SDS011;62194;49.480;10.986;2024-02-14T00:20:21;13.77;;;10.10;;
55350;SDS011;62194;49.480;10.986;2024-02-14T00:20:26;13.90;;;10.07;;
55350;SDS011;62194;49.480;10.986;2024-02-14T00:20:32;12.73;;;9.87;;
55350;SDS011;62194;49.480;10.986;2024-02-14T00:20:37;12.37;;;9.63;;
55350;SDS011;62194;49.480;10.986;2024-02-14T00:20:44;13.13;;;9.50;;
55350;SDS011;62194;49.480;10.986;2024-02-14T00:20:49;13.17;;;9.43;;
55350;SDS011;62194;49.480;10.986;2024-02-14T00:20:54;12.97;;;9.47;;
55350;SDS011;62194;49.480;10.986;2024-02-14T00:20:59;13.60;;;9.82;;
55350;SDS011;62194;49.480;10.986;2024-02-14T00:21:05;13.57;;;10.00;;
55350;SDS011;62194;49.480;10.986;2024-02-14T00:21:10;13.77;;;9.90;;
55350;SDS011;62194;49.480;10.986;2024-02-14T00:21:16;13.83;;;9.97;;
55350;SDS011;62194;49.480;10.986;2024-02-14T00:21:21;13.65;;;9.93;;
55350;SDS011;62194;49.480;10.986;2024-02-14T00:21:26;12.90;;;9.77;;
55350;SDS011;62194;49.480;10.986;2024-02-14T00:21:32;12.40;;;9.53;;
55350;SDS011;62194;49.480;10.986;2024-02-14T00:21:39;11.53;;;9.27;;
55350;SDS011;62194;49.480;10.986;2024-02-14T00:21:44;10.27;;;9.10;;
55350;SDS011;62194;49.480;10.986;2024-02-14T00:21:49;10.52;;;9.13;;
55350;SDS011;62194;49.480;10.986;2024-02-14T00:21:55;11.40;;;9.07;;
55350;SDS011;62194;49.480;10.986;2024-02-14T00:22:00;11.65;;;8.98;;
55350;SDS011;62194;49.480;10.986;2024-02-14T00:22:05;12.83;;;9.07;;
55350;SDS011;62194;49.480;10.986;2024-02-14T00:22:11;13.23;;;9.20;;
55350;SDS011;62194;49.480;10.986;2024-02-14T00:22:17;14.57;;;9.47;;
55350;SDS011;62194;49.480;10.986;2024-02-14T00:22:23;14.30;;;9.50;;
55350;SDS011;62194;49.480;10.986;2024-02-14T00:22:29;14.07;;;9.47;;
55350;SDS011;62194;49.480;10.986;2024-02-14T00:22:35;13.55;;;9.52;;
55350;SDS011;62194;49.480;10.986;2024-02-14T00:22:40;13.60;;;9.67;;
55350;SDS011;62194;49.480;10.986;2024-02-14T00:22:45;12.95;;;9.68;;
55350;SDS011;62194;49.480;10.986;2024-02-14T00:22:50;12.63;;;9.60;;
55350;SDS011;62194;49.480;10.986;2024-02-14T00:22:56;12.82;;;9.75;;
55350;SDS011;62194;49.480;10.986;2024-02-14T00:23:01;13.87;;;9.90;;
55350;SDS011;62194;49.480;10.986;2024-02-14T00:23:06;13.93;;;9.80;;
55350;SDS011;62194;49.480;10.986;2024-02-14T00:23:12;13.75;;;9.55;;
55350;SDS011;62194;49.480;10.986;2024-02-14T00:23:17;14.10;;;9.50;;
55350;SDS011;62194;49.480;10.986;2024-02-14T00:23:23;14.40;;;9.63;;
55350;SDS011;62194;49.480;10.986;2024-02-14T00:23:29;14.23;;;9.55;;
55350;SDS011;62194;49.480;10.986;2024-02-14T00:23:34;14.13;;;9.40;;
55350;SDS011;62194;49.480;10.986;2024-02-14T00:23:39;14.00;;;9.40;;
55350;SDS011;62194;49.480;10.986;2024-02-14T00:23:45;13.88;;;9.20;;
55350;SDS011;62194;49.480;10.986;2024-02-14T00:23:50;12.73;;;9.07;;
55350;SDS011;62194;49.480;10.986;2024-02-14T00:23:56;12.25;;;8.82;;
55350;SDS011;62194;49.480;10.986;2024-02-14T00:24:03;11.35;;;8.77;;
55350;SDS011;62194;49.480;10.986;2024-02-14T00:24:08;11.82;;;8.77;;
55350;SDS011;62194;49.480;10.986;2024-02-14T00:24:13;12.10;;;8.90;;
55350;SDS011;62194;49.480;10.986;2024-02-14T00:24:20;11.90;;;8.70;;
55350;SDS011;62194;49.480;10.986;2024-02-14T00:24:27;12.34;;;8.76;;
55350;SDS011;62194;49.480;10.986;2024-02-14T00:24:34;12.00;;;8.67;;
55350;SDS011;62194;49.480;10.986;2024-02-14T00:24:40;11.35;;;8.57;;
55350;SDS011;62194;49.480;10.986;2024-02-14T00:24:46;11.43;;;8.80;;
55350;SDS011;62194;49.480;10.986;2024-02-14T00:24:51;11.57;;;9.03;;
55350;SDS011;62194;49.480;10.986;2024-02-14T00:24:56;11.93;;;9.00;;
55350;SDS011;62194;49.480;10.986;2024-02-14T00:25:02;12.23;;;9.33;;
55350;SDS011;62194;49.480;10.986;2024-02-14T00:25:07;12.70;;;9.70;;
55350;SDS011;62194;49.480;10.986;2024-02-14T00:25:14;13.17;;;9.63;;
55350;SDS011;62194;49.480;10.986;2024-02-14T00:25:19;13.50;;;9.63;;
55350;SDS011;62194;49.480;10.986;2024-02-14T00:25:24;13.37;;;9.70;;
55350;SDS011;62194;49.480;10.986;2024-02-14T00:25:30;13.68;;;9.82;;
55350;SDS011;62194;49.480;10.986;2024-02-14T00:25:35;13.90;;;9.67;;
55350;SDS011;62194;49.480;10.986;2024-02-14T00:25:41;13.77;;;9.48;;
55350;SDS011;62194;49.480;10.986;2024-02-14T00:25:46;12.93;;;9.43;;
55350;SDS011;62194;49.480;10.986;2024-02-14T00:25:51;13.10;;;9.35;;
55350;SDS011;62194;49.480;10.986;2024-02-14T00:25:57;12.47;;;9.20;;
55350;SDS011;62194;49.480;10.986;2024-02-14T00:26:02;12.70;;;9.10;;
55350;SDS011;62194;49.480;10.986;2024-02-14T00:26:07;12.77;;;9.10;;
55350;SDS011;62194;49.480;10.986;2024-02-14T00:26:12;13.57;;;9.35;;
55350;SDS011;62194;49.480;10.986;2024-02-14T00:26:18;14.03;;;9.37;;
55350;SDS011;62194;49.480;10.986;2024-02-14T00:26:23;14.10;;;9.50;;
55350;SDS011;62194;49.480;10.986;2024-02-14T00:26:29;14.60;;;9.60;;
55350;SDS011;62194;49.480;10.986;2024-02-14T00:26:34;13.70;;;9.57;;
55350;SDS011;62194;49.480;10.986;2024-02-14T00:26:40;13.63;;;9.52;;
55350;SDS011;62194;49.480;10.986;2024-02-14T00:26:45;13.30;;;9.77;;
55350;SDS011;62194;49.480;10.986;2024-02-14T00:26:51;14.10;;;10.00;;
55350;SDS011;62194;49.480;10.986;2024-02-14T00:26:56;13.93;;;10.03;;
55350;SDS011;62194;49.480;10.986;2024-02-14T00:27:02;13.75;;;10.23;;
55350;SDS011;62194;49.480;10.986;2024-02-14T00:27:08;14.07;;;10.37;;
55350;SDS011;62194;49.480;10.986;2024-02-14T00:27:13;14.27;;;10.03;;
55350;SDS011;62194;49.480;10.986;2024-02-14T00:27:22;13.80;;;10.03;;
55350;SDS011;62194;49.480;10.986;2024-02-14T00:27:27;13.65;;;9.88;;
55350;SDS011;62194;49.480;10.986;2024-02-14T00:27:32;13.73;;;9.77;;
55350;SDS011;62194;49.480;10.986;2024-02-14T00:27:38;13.80;;;9.90;;
55350;SDS011;62194;49.480;10.986;2024-02-14T00:27:44;13.37;;;10.00;;
55350;SDS011;62194;49.480;10.986;2024-02-14T00:27:50;12.47;;;9.67;;
55350;SDS011;62194;49.480;10.986;2024-02-14T00:27:55;12.20;;;9.47;;
55350;SDS011;62194;49.480;10.986;2024-02-14T00:28:01;13.40;;;9.60;;
55350;SDS011;62194;49.480;10.986;2024-02-14T00:28:06;13.63;;;9.60;;
55350;SDS011;62194;49.480;10.986;2024-02-14T00:28:11;13.30;;;9.47;;
55350;SDS011;62194;49.480;10.986;2024-02-14T00:28:17;13.20;;;9.43;;
55350;SDS011;62194;49.480;10.986;2024-02-14T00:28:22;13.00;;;9.40;;
55350;SDS011;62194;49.480;10.986;2024-02-14T00:28:31;11.53;;;9.30;;
55350;SDS011;62194;49.480;10.986;2024-02-14T00:28:37;10.82;;;8.98;;
55350;SDS011;62194;49.480;10.986;2024-02-14T00:28:42;11.60;;;9.07;;
55350;SDS011;62194;49.480;10.986;2024-02-14T00:28:48;12.33;;;9.10;;
55350;SDS011;62194;49.480;10.986;2024-02-14T00:28:53;12.90;;;9.27;;
55350;SDS011;62194;49.480;10.986;2024-02-14T00:28:58;13.00;;;9.30;;
55350;SDS011;62194;49.480;10.986;2024-02-14T00:29:04;13.27;;;9.27;;
55350;SDS011;62194;49.480;10.986;2024-02-14T00:29:09;13.70;;;9.48;;
55350;SDS011;62194;49.480;10.986;2024-02-14T00:29:14;13.30;;;9.50;;
55350;SDS011;62194;49.480;10.986;2024-02-14T00:29:20;12.93;;;9.30;;
55350;SDS011;62194;49.480;10.986;2024-02-14T00:29:26;13.50;;;9.23;;
55350;SDS011;62194;49.480;10.986;2024-02-14T00:29:31;13.60;;;9.47;;
55350;SDS011;62194;49.480;10.986;2024-02-14T00:29:39;13.80;;;9.43;;
55350;SDS011;62194;49.480;10.986;2024-02-14T00:29:44;14.02;;;9.45;;
55350;SDS011;62194;49.480;10.986;2024-02-14T00:29:51;13.70;;;9.38;;
55350;SDS011;62194;49.480;10.986;2024-02-14T00:29:58;13.20;;;9.30;;
55350;SDS011;62194;49.480;10.986;2024-02-14T00:30:04;13.23;;;9.25;;
55350;SDS011;62194;49.480;10.986;2024-02-14T00:30:10;12.52;;;9.32;;
55350;SDS011;62194;49.480;10.986;2024-02-14T00:30:16;11.88;;;9.30;;
55350;SDS011;62194;49.480;10.986;2024-02-14T00:30:21;12.27;;;9.47;;
55350;SDS011;62194;49.480;10.986;2024-02-14T00:30:28;12.43;;;9.47;;
55350;SDS011;62194;49.480;10.986;2024-02-14T00:30:33;12.87;;;9.30;;
55350;SDS011;62194;49.480;10.986;2024-02-14T00:30:39;12.98;;;9.45;;
55350;SDS011;62194;49.480;10.986;2024-02-14T00:30:44;13.67;;;9.57;;
55350;SDS011;62194;49.480;10.986;2024-02-14T00:30:50;13.88;;;9.60;;
55350;SDS011;62194;49.480;10.986;2024-02-14T00:30:55;13.63;;;9.67;;
55350;SDS011;62194;49.480;10.986;2024-02-14T00:31:01;13.93;;;9.63;;
55350;SDS011;62194;49.480;10.986;2024-02-14T00:31:06;13.63;;;9.53;;
55350;SDS011;62194;49.480;10.986;2024-02-14T00:31:11;12.93;;;9.17;;
55350;SDS011;62194;49.480;10.986;2024-02-14T00:31:17;12.70;;;8.82;;
55350;SDS011;62194;49.480;10.986;2024-02-14T00:31:22;12.70;;;8.50;;
55350;SDS011;62194;49.480;10.986;2024-02-14T00:31:27;12.70;;;8.47;;
55350;SDS011;62194;49.480;10.986;2024-02-14T00:31:33;11.88;;;8.32;;
55350;SDS011;62194;49.480;10.986;2024-02-14T00:31:38;11.73;;;8.30;;
55350;SDS011;62194;49.480;10.986;2024-02-14T00:31:43;11.95;;;8.45;;
55350;SDS011;62194;49.480;10.986;2024-02-14T00:31:49;11.87;;;8.67;;
55350;SDS011;62194;49.480;10.986;2024-02-14T00:31:55;12.05;;;8.95;;
55350;SDS011;62194;49.480;10.986;2024-02-14T00:32:00;12.30;;;9.18;;
55350;SDS011;62194;49.480;10.986;2024-02-14T00:32:06;12.60;;;9.20;;
55350;SDS011;62194;49.480;10.986;2024-02-14T00:32:14;12.98;;;9.30;;
55350;SDS011;62194;49.480;10.986;2024-02-14T00:32:19;13.07;;;9.43;;
55350;SDS011;62194;49.480;10.986;2024-02-14T00:32:25;13.50;;;9.40;;
55350;SDS011;62194;49.480;10.986;2024-02-14T00:32:30;13.40;;;9.30;;
55350;SDS011;62194;49.480;10.986;2024-02-14T00:32:36;13.98;;;9.43;;
55350;SDS011;62194;49.480;10.986;2024-02-14T00:32:41;14.07;;;9.10;;
55350;SDS011;62194;49.480;10.986;2024-02-14T00:32:46;13.95;;;9.07;;
55350;SDS011;62194;49.480;10.986;2024-02-14T00:32:52;13.43;;;8.77;;
55350;SDS011;62194;49.480;10.986;2024-02-14T00:32:57;12.57;;;8.57;;
55350;SDS011;62194;49.480;10.986;2024-02-14T00:33:02;12.18;;;8.60;;
55350;SDS011;62194;49.480;10.986;2024-02-14T00:33:08;11.00;;;8.63;;
55350;SDS011;62194;49.480;10.986;2024-02-14T00:33:13;11.30;;;8.83;;
55350;SDS011;62194;49.480;10.986;2024-02-14T00:33:18;11.80;;;8.82;;
55350;SDS011;62194;49.480;10.986;2024-02-14T00:33:25;12.66;;;9.06;;